createdAt,value
2017-11-11T00:00:13.043Z,7.1
2017-11-11T00:01:13.383Z,7.03
2017-11-11T00:02:13.076Z,7.05
2017-11-11T00:03:13.109Z,6.95
2017-11-11T00:04:13.105Z,7.02
2017-11-11T00:05:13.450Z,7.13
2017-11-11T00:06:13.462Z,7.1
2017-11-11T00:07:13.203Z,7.07
2017-11-11T00:08:12.846Z,7.15
2017-11-11T00:09:13.517Z,7.13
2017-11-11T00:10:13.521Z,7.02
2017-11-11T00:11:13.216Z,7.03
2017-11-11T00:12:13.231Z,7.02
2017-11-11T00:13:13.582Z,7.15
2017-11-11T00:14:13.582Z,7.13
2017-11-11T00:15:13.596Z,7.2
2017-11-11T00:16:13.628Z,7.07
2017-11-11T00:17:12.980Z,7.11
2017-11-11T00:18:13.325Z,7.2
2017-11-11T00:19:13.339Z,7.23
2017-11-11T00:20:13.680Z,7.14
2017-11-11T00:21:13.391Z,7.23
2017-11-11T00:22:13.431Z,7.14
2017-11-11T00:23:13.724Z,7.28
2017-11-11T00:24:13.412Z,7.18
2017-11-11T00:25:13.434Z,7.18
2017-11-11T00:26:13.117Z,7.24
2017-11-11T00:27:13.788Z,7.2
2017-11-11T00:28:13.798Z,7.2
2017-11-11T00:29:13.489Z,7.25
2017-11-11T00:30:13.831Z,7.28
2017-11-11T00:31:13.844Z,7.31
2017-11-11T00:32:13.540Z,7.24
2017-11-11T00:33:13.551Z,7.36
2017-11-11T00:34:13.892Z,7.25
2017-11-11T00:35:13.925Z,7.17
2017-11-11T00:36:13.596Z,7.25
2017-11-11T00:37:13.987Z,7.32
2017-11-11T00:38:13.626Z,7.36
2017-11-11T00:39:13.972Z,7.29
2017-11-11T00:40:13.979Z,7.33
2017-11-11T00:41:14.013Z,7.4
2017-11-11T00:42:14.013Z,7.42
2017-11-11T00:43:14.030Z,7.39
2017-11-11T00:44:14.046Z,7.39
2017-11-11T00:45:14.055Z,7.43
2017-11-11T00:46:13.750Z,7.4
2017-11-11T00:47:14.094Z,7.4
2017-11-11T00:48:13.783Z,7.39
2017-11-11T00:49:14.132Z,7.4
2017-11-11T00:50:13.821Z,7.35
2017-11-11T00:51:13.852Z,7.29
2017-11-11T00:52:13.840Z,7.43
2017-11-11T00:53:14.187Z,7.45
2017-11-11T00:54:13.878Z,7.47
2017-11-11T00:55:14.212Z,7.36
2017-11-11T00:56:14.236Z,7.42
2017-11-11T00:57:14.241Z,7.42
2017-11-11T00:58:14.260Z,7.47
2017-11-11T00:59:14.279Z,7.54
2017-11-11T01:00:14.300Z,7.58
2017-11-11T01:01:13.982Z,7.4
2017-11-11T01:02:14.346Z,7.42
2017-11-11T01:03:14.342Z,7.42
2017-11-11T01:04:14.352Z,7.36
2017-11-11T01:05:14.051Z,7.51
2017-11-11T01:06:14.059Z,7.47
2017-11-11T01:07:14.478Z,7.39
2017-11-11T01:08:13.769Z,7.5
2017-11-11T01:09:14.431Z,7.5
2017-11-11T01:10:14.487Z,7.43
2017-11-11T01:11:14.468Z,7.66
2017-11-11T01:12:14.477Z,7.51
2017-11-11T01:13:14.494Z,7.47
2017-11-11T01:14:14.181Z,7.43
2017-11-11T01:15:14.202Z,7.45
2017-11-11T01:16:14.542Z,7.43
2017-11-11T01:17:14.559Z,7.48
2017-11-11T01:18:14.247Z,7.42
2017-11-11T01:19:14.274Z,7.45
2017-11-11T01:20:14.601Z,7.51
2017-11-11T01:21:14.618Z,7.43
2017-11-11T01:22:14.311Z,7.58
2017-11-11T01:23:14.649Z,7.6
2017-11-11T01:24:14.355Z,7.66
2017-11-11T01:25:14.412Z,7.58
2017-11-11T01:26:14.694Z,7.63
2017-11-11T01:27:14.715Z,7.53
2017-11-11T01:28:14.402Z,7.48
2017-11-11T01:29:14.419Z,7.38
2017-11-11T01:30:14.756Z,7.39
2017-11-11T01:31:14.452Z,7.54
2017-11-11T01:32:14.141Z,7.51
2017-11-11T01:33:14.820Z,7.57
2017-11-11T01:34:14.504Z,7.69
2017-11-11T01:35:14.514Z,7.69
2017-11-11T01:36:14.852Z,7.82
2017-11-11T01:37:14.883Z,7.69
2017-11-11T01:38:14.581Z,7.8
2017-11-11T01:39:14.898Z,7.7
2017-11-11T01:40:14.913Z,7.79
2017-11-11T01:41:14.932Z,7.72
2017-11-11T01:42:14.623Z,7.85
2017-11-11T01:43:14.970Z,7.77
2017-11-11T01:44:14.979Z,7.79
2017-11-11T01:45:14.998Z,7.77
2017-11-11T01:46:15.017Z,7.67
2017-11-11T01:47:15.057Z,7.66
2017-11-11T01:48:15.041Z,7.72
2017-11-11T01:49:14.736Z,7.69
2017-11-11T01:50:14.430Z,7.57
2017-11-11T01:51:14.770Z,7.54
2017-11-11T01:52:15.105Z,7.61
2017-11-11T01:53:14.801Z,7.57
2017-11-11T01:54:15.138Z,7.6
2017-11-11T01:55:15.207Z,7.7
2017-11-11T01:56:15.176Z,7.76
2017-11-11T01:57:14.869Z,7.72
2017-11-11T01:58:14.875Z,7.82
2017-11-11T01:59:15.225Z,7.9
2017-11-11T02:00:15.286Z,7.76
2017-11-11T02:01:14.927Z,7.79
2017-11-11T02:02:15.262Z,7.75
2017-11-11T02:03:15.282Z,7.93
2017-11-11T02:04:14.971Z,7.93
2017-11-11T02:05:15.309Z,8.1
2017-11-11T02:06:15.346Z,8.06
2017-11-11T02:07:15.343Z,8.08
2017-11-11T02:08:15.038Z,8.08
2017-11-11T02:09:15.378Z,8.13
2017-11-11T02:10:15.068Z,8.15
2017-11-11T02:11:15.092Z,8.24
2017-11-11T02:12:15.425Z,8.03
2017-11-11T02:13:15.126Z,7.85
2017-11-11T02:14:15.453Z,7.9
2017-11-11T02:15:15.520Z,7.87
2017-11-11T02:16:15.489Z,7.88
2017-11-11T02:17:15.501Z,7.82
2017-11-11T02:18:15.529Z,7.66
2017-11-11T02:19:15.535Z,7.5
2017-11-11T02:20:15.546Z,7.43
2017-11-11T02:21:15.239Z,7.39
2017-11-11T02:22:15.577Z,7.42
2017-11-11T02:23:15.608Z,7.42
2017-11-11T02:24:15.289Z,7.43
2017-11-11T02:25:14.978Z,7.33
2017-11-11T02:26:15.641Z,7.42
2017-11-11T02:27:15.334Z,7.32
2017-11-11T02:28:15.684Z,7.29
2017-11-11T02:29:15.686Z,7.28
2017-11-11T02:30:15.726Z,7.07
2017-11-11T02:31:15.736Z,7.24
2017-11-11T02:32:15.410Z,7.1
2017-11-11T02:33:15.758Z,7.2
2017-11-11T02:34:15.769Z,7.13
2017-11-11T02:35:15.789Z,7.06
2017-11-11T02:36:15.797Z,7.23
2017-11-11T02:37:15.811Z,7.13
2017-11-11T02:38:15.840Z,7.2
2017-11-11T02:39:15.875Z,7.32
2017-11-11T02:40:15.855Z,7.28
2017-11-11T02:41:15.874Z,7.21
2017-11-11T02:42:15.885Z,7.21
2017-11-11T02:43:15.583Z,7.29
2017-11-11T02:44:15.934Z,7.29
2017-11-11T02:45:15.622Z,7.28
2017-11-11T02:46:15.969Z,7.38
2017-11-11T02:47:15.967Z,7.33
2017-11-11T02:48:15.986Z,7.31
2017-11-11T02:49:16.048Z,7.28
2017-11-11T02:50:16.012Z,7.02
2017-11-11T02:51:15.704Z,6.96
2017-11-11T02:52:15.726Z,7.07
2017-11-11T02:53:16.060Z,7.11
2017-11-11T02:54:16.077Z,7.11
2017-11-11T02:55:16.095Z,7.15
2017-11-11T02:56:16.131Z,7.13
2017-11-11T02:57:15.794Z,7.15
2017-11-11T02:58:15.826Z,7.1
2017-11-11T02:59:16.154Z,7.15
2017-11-11T03:00:15.837Z,7.05
2017-11-11T03:01:15.857Z,6.99
2017-11-11T03:02:16.191Z,7
2017-11-11T03:03:16.215Z,7.07
2017-11-11T03:04:16.222Z,7.1
2017-11-11T03:05:16.292Z,7.11
2017-11-11T03:06:16.254Z,7.03
2017-11-11T03:07:15.625Z,6.97
2017-11-11T03:08:16.293Z,6.97
2017-11-11T03:09:16.305Z,6.87
2017-11-11T03:10:16.312Z,6.89
2017-11-11T03:11:16.335Z,6.89
2017-11-11T03:12:16.024Z,6.88
2017-11-11T03:13:15.715Z,6.77
2017-11-11T03:14:16.386Z,6.77
2017-11-11T03:15:16.397Z,6.74
2017-11-11T03:16:16.084Z,6.72
2017-11-11T03:17:16.422Z,6.74
2017-11-11T03:18:16.444Z,6.72
2017-11-11T03:19:16.453Z,6.75
2017-11-11T03:20:16.522Z,6.79
2017-11-11T03:21:16.161Z,6.87
2017-11-11T03:22:16.501Z,7.02
2017-11-11T03:23:16.516Z,7.11
2017-11-11T03:24:16.531Z,7.13
2017-11-11T03:25:16.540Z,7.06
2017-11-11T03:26:16.567Z,7
2017-11-11T03:27:16.253Z,6.93
2017-11-11T03:28:16.266Z,7.06
2017-11-11T03:29:16.283Z,7.06
2017-11-11T03:30:16.307Z,7.15
2017-11-11T03:31:16.665Z,7.23
2017-11-11T03:32:16.651Z,7.2
2017-11-11T03:33:16.667Z,6.95
2017-11-11T03:34:16.359Z,6.93
2017-11-11T03:35:16.097Z,7.02
2017-11-11T03:36:16.712Z,7.15
2017-11-11T03:37:16.738Z,6.87
2017-11-11T03:38:16.093Z,6.99
2017-11-11T03:39:16.442Z,6.93
2017-11-11T03:40:16.769Z,6.88
2017-11-11T03:41:16.466Z,6.88
2017-11-11T03:42:16.810Z,6.87
2017-11-11T03:43:16.498Z,6.89
2017-11-11T03:44:16.834Z,6.87
2017-11-11T03:45:16.531Z,6.74
2017-11-11T03:46:16.868Z,6.87
2017-11-11T03:47:16.887Z,6.81
2017-11-11T03:48:16.892Z,6.82
2017-11-11T03:49:16.586Z,6.79
2017-11-11T03:50:16.598Z,6.77
2017-11-11T03:51:16.939Z,6.7
2017-11-11T03:52:16.628Z,6.82
2017-11-11T03:53:16.646Z,6.72
2017-11-11T03:54:16.984Z,6.64
2017-11-11T03:55:17.010Z,6.6
2017-11-11T03:56:17.036Z,6.41
2017-11-11T03:57:16.705Z,6.17
2017-11-11T03:58:16.399Z,6.3
2017-11-11T03:59:17.067Z,6.2
2017-11-11T04:00:16.752Z,6.19
2017-11-11T04:01:16.764Z,6.07
2017-11-11T04:02:16.783Z,6.2
2017-11-11T04:03:16.796Z,6.07
2017-11-11T04:04:17.141Z,6.19
2017-11-11T04:05:17.027Z,6.09
2017-11-11T04:06:16.839Z,5.99
2017-11-11T04:07:17.188Z,6.09
2017-11-11T04:08:17.195Z,6.02
2017-11-11T04:09:16.561Z,5.99
2017-11-11T04:10:16.908Z,5.99
2017-11-11T04:11:17.239Z,5.97
2017-11-11T04:12:16.937Z,6.04
2017-11-11T04:13:17.280Z,6.02
2017-11-11T04:14:16.637Z,6.04
2017-11-11T04:15:17.309Z,5.73
2017-11-11T04:16:17.320Z,5.82
2017-11-11T04:17:17.005Z,5.84
2017-11-11T04:18:17.020Z,5.72
2017-11-11T04:19:17.362Z,5.79
2017-11-11T04:20:17.403Z,5.76
2017-11-11T04:21:17.387Z,5.89
2017-11-11T04:22:17.100Z,5.66
2017-11-11T04:23:17.413Z,5.54
2017-11-11T04:24:16.780Z,5.65
2017-11-11T04:25:17.170Z,5.66
2017-11-11T04:26:17.457Z,5.72
2017-11-11T04:27:17.150Z,5.61
2017-11-11T04:28:17.494Z,5.5
2017-11-11T04:29:17.509Z,5.41
2017-11-11T04:30:17.194Z,5.47
2017-11-11T04:31:17.551Z,5.43
2017-11-11T04:32:17.226Z,5.39
2017-11-11T04:33:17.557Z,5.48
2017-11-11T04:34:17.575Z,5.43
2017-11-11T04:35:17.585Z,5.54
2017-11-11T04:36:17.284Z,5.57
2017-11-11T04:37:17.293Z,5.48
2017-11-11T04:38:17.309Z,5.48
2017-11-11T04:39:17.658Z,5.57
2017-11-11T04:40:17.723Z,5.43
2017-11-11T04:41:17.674Z,5.59
2017-11-11T04:42:17.374Z,5.62
2017-11-11T04:43:17.386Z,5.57
2017-11-11T04:44:17.725Z,5.61
2017-11-11T04:45:17.408Z,5.64
2017-11-11T04:46:17.429Z,5.57
2017-11-11T04:47:17.766Z,5.76
2017-11-11T04:48:17.775Z,5.57
2017-11-11T04:49:17.795Z,5.65
2017-11-11T04:50:17.832Z,5.56
2017-11-11T04:51:17.842Z,5.64
2017-11-11T04:52:17.830Z,5.48
2017-11-11T04:53:17.532Z,5.53
2017-11-11T04:54:17.545Z,5.46
2017-11-11T04:55:17.888Z,5.53
2017-11-11T04:56:17.890Z,5.48
2017-11-11T04:57:17.581Z,5.47
2017-11-11T04:58:17.973Z,5.44
2017-11-11T04:59:17.625Z,5.39
2017-11-11T05:00:17.950Z,5.39
2017-11-11T05:01:17.961Z,5.51
2017-11-11T05:02:17.977Z,5.51
2017-11-11T05:03:18.001Z,5.41
2017-11-11T05:04:17.718Z,5.3
2017-11-11T05:05:18.027Z,5.39
2017-11-11T05:06:18.036Z,5.46
2017-11-11T05:07:18.054Z,5.35
2017-11-11T05:08:18.069Z,5.43
2017-11-11T05:09:18.080Z,5.36
2017-11-11T05:10:18.105Z,5.39
2017-11-11T05:11:18.106Z,5.41
2017-11-11T05:12:18.134Z,5.47
2017-11-11T05:13:18.139Z,5.44
2017-11-11T05:14:18.201Z,5.39
2017-11-11T05:15:18.168Z,5.54
2017-11-11T05:16:18.192Z,5.61
2017-11-11T05:17:17.870Z,5.61
2017-11-11T05:18:17.888Z,5.43
2017-11-11T05:19:17.917Z,5.48
2017-11-11T05:20:18.234Z,5.5
2017-11-11T05:21:17.926Z,5.53
2017-11-11T05:22:17.945Z,5.47
2017-11-11T05:23:17.957Z,5.44
2017-11-11T05:24:18.293Z,5.44
2017-11-11T05:25:17.982Z,5.53
2017-11-11T05:26:17.997Z,5.59
2017-11-11T05:27:18.340Z,5.56
2017-11-11T05:28:18.028Z,5.65
2017-11-11T05:29:18.365Z,5.64
2017-11-11T05:30:18.381Z,5.69
2017-11-11T05:31:18.388Z,5.64
2017-11-11T05:32:18.404Z,5.71
2017-11-11T05:33:18.104Z,5.75
2017-11-11T05:34:18.108Z,5.89
2017-11-11T05:35:18.449Z,5.93
2017-11-11T05:36:18.140Z,5.93
2017-11-11T05:37:18.150Z,5.86
2017-11-11T05:38:18.486Z,5.86
2017-11-11T05:39:18.182Z,5.87
2017-11-11T05:40:18.194Z,5.98
2017-11-11T05:41:18.208Z,5.99
2017-11-11T05:42:17.897Z,5.99
2017-11-11T05:43:18.572Z,6.02
2017-11-11T05:44:18.608Z,6.05
2017-11-11T05:45:18.269Z,6.04
2017-11-11T05:46:18.605Z,6.02
2017-11-11T05:47:18.346Z,6.08
2017-11-11T05:48:18.633Z,6.02
2017-11-11T05:49:18.326Z,6.09
2017-11-11T05:50:18.662Z,6.14
2017-11-11T05:51:18.688Z,6.17
2017-11-11T05:52:18.705Z,6.12
2017-11-11T05:53:18.384Z,6.07
2017-11-11T05:54:18.726Z,6.14
2017-11-11T05:55:18.737Z,6.2
2017-11-11T05:56:18.764Z,6.07
2017-11-11T05:57:18.772Z,6.24
2017-11-11T05:58:18.456Z,6.2
2017-11-11T05:59:18.794Z,6.09
2017-11-11T06:00:18.824Z,6.16
2017-11-11T06:01:18.826Z,6.08
2017-11-11T06:02:18.802Z,6.2
2017-11-11T06:03:18.859Z,6.26
2017-11-11T06:04:18.553Z,6.26
2017-11-11T06:05:18.893Z,6.42
2017-11-11T06:06:18.910Z,6.42
2017-11-11T06:07:18.916Z,6.35
2017-11-11T06:08:18.610Z,6.44
2017-11-11T06:09:18.945Z,6.46
2017-11-11T06:10:18.961Z,6.38
2017-11-11T06:11:18.649Z,6.46
2017-11-11T06:12:18.988Z,6.36
2017-11-11T06:13:18.684Z,6.46
2017-11-11T06:14:18.694Z,6.51
2017-11-11T06:15:19.035Z,6.57
2017-11-11T06:16:18.726Z,6.64
2017-11-11T06:17:18.741Z,6.59
2017-11-11T06:18:18.772Z,6.57
2017-11-11T06:19:19.101Z,6.62
2017-11-11T06:20:19.107Z,6.52
2017-11-11T06:21:18.803Z,6.52
2017-11-11T06:22:19.159Z,6.54
2017-11-11T06:23:19.162Z,6.66
2017-11-11T06:24:19.174Z,6.62
2017-11-11T06:25:19.190Z,6.64
2017-11-11T06:26:18.561Z,6.67
2017-11-11T06:27:19.219Z,6.77
2017-11-11T06:28:19.229Z,6.77
2017-11-11T06:29:19.250Z,6.69
2017-11-11T06:30:19.260Z,6.85
2017-11-11T06:31:19.277Z,6.67
2017-11-11T06:32:19.299Z,6.77
2017-11-11T06:33:18.993Z,6.7
2017-11-11T06:34:19.331Z,6.81
2017-11-11T06:35:19.345Z,6.82
2017-11-11T06:36:19.361Z,6.89
2017-11-11T06:37:19.383Z,6.88
2017-11-11T06:38:19.062Z,6.89
2017-11-11T06:39:19.404Z,7.02
2017-11-11T06:40:19.093Z,6.92
2017-11-11T06:41:19.435Z,6.82
2017-11-11T06:42:19.136Z,6.67
2017-11-11T06:43:19.479Z,6.64
2017-11-11T06:44:19.485Z,6.67
2017-11-11T06:45:19.497Z,6.79
2017-11-11T06:46:19.517Z,6.88
2017-11-11T06:47:19.202Z,7.02
2017-11-11T06:48:19.236Z,6.97
2017-11-11T06:49:19.232Z,6.93
2017-11-11T06:50:19.581Z,6.92
2017-11-11T06:51:19.595Z,6.88
2017-11-11T06:52:19.611Z,6.87
2017-11-11T06:53:19.615Z,6.88
2017-11-11T06:54:19.641Z,6.97
2017-11-11T06:55:19.324Z,6.96
2017-11-11T06:56:19.667Z,7.11
2017-11-11T06:57:19.680Z,7.29
2017-11-11T06:58:19.700Z,7.11
2017-11-11T06:59:19.712Z,6.97
2017-11-11T07:00:19.736Z,6.96
2017-11-11T07:01:19.736Z,6.93
2017-11-11T07:02:19.437Z,6.81
2017-11-11T07:03:19.789Z,6.84
2017-11-11T07:04:19.794Z,6.81
2017-11-11T07:05:19.803Z,6.72
2017-11-11T07:06:19.817Z,6.85
2017-11-11T07:07:19.288Z,6.84
2017-11-11T07:08:19.866Z,6.82
2017-11-11T07:09:19.869Z,6.84
2017-11-11T07:10:19.879Z,6.87
2017-11-11T07:11:19.574Z,6.69
2017-11-11T07:12:19.912Z,6.74
2017-11-11T07:13:19.618Z,6.74
2017-11-11T07:14:19.616Z,6.77
2017-11-11T07:15:19.960Z,6.7
2017-11-11T07:16:19.972Z,6.74
2017-11-11T07:17:19.989Z,6.92
2017-11-11T07:18:19.678Z,6.95
2017-11-11T07:19:20.027Z,6.96
2017-11-11T07:20:20.039Z,6.81
2017-11-11T07:21:19.723Z,6.97
2017-11-11T07:22:20.117Z,6.99
2017-11-11T07:23:20.082Z,6.96
2017-11-11T07:24:20.095Z,6.97
2017-11-11T07:25:19.794Z,6.89
2017-11-11T07:26:19.808Z,6.87
2017-11-11T07:27:20.139Z,6.97
2017-11-11T07:28:20.157Z,6.87
2017-11-11T07:29:19.846Z,6.74
2017-11-11T07:30:20.210Z,6.87
2017-11-11T07:31:20.224Z,6.95
2017-11-11T07:32:19.896Z,7.03
2017-11-11T07:33:19.913Z,6.87
2017-11-11T07:34:20.249Z,6.87
2017-11-11T07:35:19.943Z,6.99
2017-11-11T07:36:19.955Z,6.96
2017-11-11T07:37:20.310Z,6.93
2017-11-11T07:38:20.427Z,7.07
2017-11-11T07:39:20.336Z,7
2017-11-11T07:40:20.339Z,6.96
2017-11-11T07:41:20.373Z,6.96
2017-11-11T07:42:20.048Z,7.06
2017-11-11T07:43:20.070Z,6.97
2017-11-11T07:44:20.424Z,7.17
2017-11-11T07:45:20.417Z,7.18
2017-11-11T07:46:20.114Z,7.23
2017-11-11T07:47:20.461Z,7.23
2017-11-11T07:48:20.467Z,7.18
2017-11-11T07:49:20.487Z,7.21
2017-11-11T07:50:20.503Z,7
2017-11-11T07:51:20.518Z,7.13
2017-11-11T07:52:20.535Z,7.18
2017-11-11T07:53:20.601Z,7.25
2017-11-11T07:54:20.569Z,7.15
2017-11-11T07:55:20.582Z,7.31
2017-11-11T07:56:20.595Z,7.4
2017-11-11T07:57:20.615Z,7.32
2017-11-11T07:58:20.333Z,7.32
2017-11-11T07:59:19.993Z,7.24
2017-11-11T08:00:20.656Z,7.13
2017-11-11T08:01:20.357Z,7.17
2017-11-11T08:02:20.689Z,7.25
2017-11-11T08:03:20.377Z,7.39
2017-11-11T08:04:20.713Z,7.29
2017-11-11T08:05:20.416Z,7.4
2017-11-11T08:06:20.756Z,7.47
2017-11-11T08:07:20.764Z,7.42
2017-11-11T08:08:20.778Z,7.43
2017-11-11T08:09:20.873Z,7.36
2017-11-11T08:10:20.489Z,7.1
2017-11-11T08:11:20.854Z,7.15
2017-11-11T08:12:20.849Z,7.18
2017-11-11T08:13:20.866Z,7.2
2017-11-11T08:14:20.879Z,7.4
2017-11-11T08:15:20.891Z,7.58
2017-11-11T08:16:20.583Z,7.69
2017-11-11T08:17:20.276Z,7.51
2017-11-11T08:18:20.954Z,7.51
2017-11-11T08:19:20.978Z,7.56
2017-11-11T08:20:20.991Z,7.63
2017-11-11T08:21:21.007Z,7.85
2017-11-11T08:22:20.999Z,7.66
2017-11-11T08:23:20.701Z,7.79
2017-11-11T08:24:20.437Z,7.7
2017-11-11T08:25:21.053Z,7.66
2017-11-11T08:26:20.745Z,7.8
2017-11-11T08:27:21.089Z,7.85
2017-11-11T08:28:20.450Z,7.85
2017-11-11T08:29:20.791Z,7.73
2017-11-11T08:30:21.138Z,7.66
2017-11-11T08:31:21.148Z,7.73
2017-11-11T08:32:20.842Z,7.61
2017-11-11T08:33:21.181Z,7.76
2017-11-11T08:34:21.194Z,7.85
2017-11-11T08:35:21.215Z,7.85
2017-11-11T08:36:20.913Z,7.85
2017-11-11T08:37:20.921Z,7.97
2017-11-11T08:38:20.943Z,7.93
2017-11-11T08:39:21.335Z,7.91
2017-11-11T08:40:21.301Z,8.01
2017-11-11T08:41:21.310Z,8.09
2017-11-11T08:42:21.331Z,8
2017-11-11T08:43:21.351Z,7.87
2017-11-11T08:44:21.371Z,8.03
2017-11-11T08:45:21.054Z,8.09
2017-11-11T08:46:21.402Z,8.05
2017-11-11T08:47:21.431Z,8.03
2017-11-11T08:48:21.425Z,8.03
2017-11-11T08:49:21.448Z,8.12
2017-11-11T08:50:21.475Z,8.1
2017-11-11T08:51:21.149Z,8.16
2017-11-11T08:52:21.499Z,8.28
2017-11-11T08:53:21.508Z,8.33
2017-11-11T08:54:21.540Z,8.27
2017-11-11T08:55:21.216Z,8.18
2017-11-11T08:56:21.602Z,8.12
2017-11-11T08:57:21.588Z,7.98
2017-11-11T08:58:21.268Z,8.15
2017-11-11T08:59:21.299Z,8.41
2017-11-11T09:00:21.626Z,8.41
2017-11-11T09:01:21.637Z,8.42
2017-11-11T09:02:21.657Z,8.42
2017-11-11T09:03:21.668Z,8.46
2017-11-11T09:04:21.694Z,8.44
2017-11-11T09:05:21.708Z,8.41
2017-11-11T09:06:21.399Z,8.38
2017-11-11T09:07:21.745Z,8.37
2017-11-11T09:08:21.754Z,8.3
2017-11-11T09:09:21.769Z,8.2
2017-11-11T09:10:21.794Z,8.31
2017-11-11T09:11:21.870Z,8.49
2017-11-11T09:12:21.495Z,8.48
2017-11-11T09:13:21.515Z,8.6
2017-11-11T09:14:21.530Z,8.55
2017-11-11T09:15:21.872Z,8.66
2017-11-11T09:16:21.895Z,8.71
2017-11-11T09:17:21.905Z,8.79
2017-11-11T09:18:21.922Z,8.81
2017-11-11T09:19:21.946Z,8.91
2017-11-11T09:20:21.628Z,8.95
2017-11-11T09:21:21.652Z,8.95
2017-11-11T09:22:21.985Z,8.66
2017-11-11T09:23:21.682Z,8.69
2017-11-11T09:24:22.023Z,8.7
2017-11-11T09:25:21.732Z,8.7
2017-11-11T09:26:21.404Z,8.69
2017-11-11T09:27:22.071Z,8.51
2017-11-11T09:28:22.092Z,8.44
2017-11-11T09:29:21.781Z,8.48
2017-11-11T09:30:22.143Z,8.26
2017-11-11T09:31:21.826Z,8.33
2017-11-11T09:32:21.835Z,8.3
2017-11-11T09:33:21.879Z,8.51
2017-11-11T09:34:22.199Z,8.28
2017-11-11T09:35:21.890Z,8.2
2017-11-11T09:36:21.908Z,8.13
2017-11-11T09:37:22.237Z,8.13
2017-11-11T09:38:22.266Z,8
2017-11-11T09:39:21.967Z,7.98
2017-11-11T09:40:22.313Z,7.83
2017-11-11T09:41:22.306Z,7.87
2017-11-11T09:42:21.996Z,7.57
2017-11-11T09:43:22.348Z,7.33
2017-11-11T09:44:22.083Z,7.48
2017-11-11T09:45:22.375Z,7.54
2017-11-11T09:46:22.066Z,7.69
2017-11-11T09:47:22.405Z,7.8
2017-11-11T09:48:22.424Z,7.72
2017-11-11T09:49:22.476Z,7.48
2017-11-11T09:50:22.452Z,7.43
2017-11-11T09:51:22.471Z,7.42
2017-11-11T09:52:22.484Z,7.57
2017-11-11T09:53:22.500Z,7.76
2017-11-11T09:54:22.195Z,7.75
2017-11-11T09:55:22.210Z,7.61
2017-11-11T09:56:22.226Z,7.42
2017-11-11T09:57:22.245Z,7.57
2017-11-11T09:58:22.595Z,7.53
2017-11-11T09:59:22.322Z,7.61
2017-11-11T10:00:22.610Z,7.31
2017-11-11T10:01:22.305Z,7.43
2017-11-11T10:02:22.319Z,7.42
2017-11-11T10:03:22.342Z,7.6
2017-11-11T10:04:22.675Z,7.67
2017-11-11T10:05:22.692Z,7.67
2017-11-11T10:06:22.390Z,7.67
2017-11-11T10:07:22.727Z,7.63
2017-11-11T10:08:22.420Z,7.85
2017-11-11T10:09:22.752Z,7.66
2017-11-11T10:10:22.454Z,7.69
2017-11-11T10:11:22.818Z,7.4
2017-11-11T10:12:22.481Z,7.47
2017-11-11T10:13:22.823Z,7.45
2017-11-11T10:14:22.846Z,7.43
2017-11-11T10:15:22.527Z,7.38
2017-11-11T10:16:22.552Z,7.43
2017-11-11T10:17:22.573Z,7.28
2017-11-11T10:18:22.577Z,7.36
2017-11-11T10:19:22.642Z,7.43
2017-11-11T10:20:22.930Z,7.36
2017-11-11T10:21:22.943Z,7.53
2017-11-11T10:22:22.971Z,7.69
2017-11-11T10:23:22.989Z,7.38
2017-11-11T10:24:22.988Z,7.29
2017-11-11T10:25:23.009Z,7.35
2017-11-11T10:26:22.706Z,7.45
2017-11-11T10:27:22.721Z,7.33
2017-11-11T10:28:23.055Z,7.35
2017-11-11T10:29:23.075Z,7.29
2017-11-11T10:30:23.091Z,7.31
2017-11-11T10:31:23.107Z,7.38
2017-11-11T10:32:23.125Z,7.29
2017-11-11T10:33:23.157Z,7.36
2017-11-11T10:34:23.145Z,7.32
2017-11-11T10:35:23.171Z,7.42
2017-11-11T10:36:23.182Z,7.53
2017-11-11T10:37:22.545Z,7.58
2017-11-11T10:38:23.262Z,7.69
2017-11-11T10:39:23.226Z,7.66
2017-11-11T10:40:22.922Z,7.61
2017-11-11T10:41:22.933Z,7.58
2017-11-11T10:42:23.283Z,7.63
2017-11-11T10:43:22.964Z,7.75
2017-11-11T10:44:22.977Z,7.63
2017-11-11T10:45:23.346Z,7.6
2017-11-11T10:46:23.332Z,7.58
2017-11-11T10:47:23.033Z,7.67
2017-11-11T10:48:23.040Z,7.77
2017-11-11T10:49:23.396Z,7.72
2017-11-11T10:50:23.400Z,7.67
2017-11-11T10:51:23.414Z,7.75
2017-11-11T10:52:23.427Z,7.83
2017-11-11T10:53:22.802Z,7.54
2017-11-11T10:54:23.136Z,7.51
2017-11-11T10:55:23.150Z,7.42
2017-11-11T10:56:23.162Z,7.48
2017-11-11T10:57:23.500Z,7.48
2017-11-11T10:58:23.517Z,7.45
2017-11-11T10:59:23.534Z,7.39
2017-11-11T11:00:23.548Z,7.42
2017-11-11T11:01:23.242Z,7.47
2017-11-11T11:02:23.580Z,7.43
2017-11-11T11:03:22.947Z,7.39
2017-11-11T11:04:23.609Z,7.51
2017-11-11T11:05:23.302Z,7.5
2017-11-11T11:06:23.641Z,7.48
2017-11-11T11:07:23.659Z,7.42
2017-11-11T11:08:23.677Z,7.57
2017-11-11T11:09:23.688Z,7.5
2017-11-11T11:10:23.731Z,7.53
2017-11-11T11:11:23.747Z,7.38
2017-11-11T11:12:23.737Z,7.39
2017-11-11T11:13:23.428Z,7.45
2017-11-11T11:14:23.129Z,7.45
2017-11-11T11:15:23.460Z,7.43
2017-11-11T11:16:23.805Z,7.39
2017-11-11T11:17:23.819Z,7.21
2017-11-11T11:18:23.182Z,7.38
2017-11-11T11:19:23.852Z,7.21
2017-11-11T11:20:23.864Z,7.29
2017-11-11T11:21:23.881Z,7.21
2017-11-11T11:22:23.901Z,7.2
2017-11-11T11:23:23.583Z,7.23
2017-11-11T11:24:23.967Z,7.36
2017-11-11T11:25:23.948Z,7.42
2017-11-11T11:26:23.953Z,7.38
2017-11-11T11:27:23.644Z,7.5
2017-11-11T11:28:23.669Z,7.54
2017-11-11T11:29:23.355Z,7.66
2017-11-11T11:30:24.045Z,7.73
2017-11-11T11:31:23.710Z,7.75
2017-11-11T11:32:23.741Z,7.75
2017-11-11T11:33:24.090Z,7.57
2017-11-11T11:34:24.084Z,7.42
2017-11-11T11:35:23.446Z,7.4
2017-11-11T11:36:24.110Z,7.35
2017-11-11T11:37:24.131Z,7.47
2017-11-11T11:38:24.147Z,7.56
2017-11-11T11:39:23.833Z,7.61
2017-11-11T11:40:24.181Z,7.66
2017-11-11T11:41:24.191Z,7.57
2017-11-11T11:42:23.884Z,7.66
2017-11-11T11:43:23.892Z,7.77
2017-11-11T11:44:23.920Z,7.67
2017-11-11T11:45:24.252Z,7.61
2017-11-11T11:46:23.943Z,7.83
2017-11-11T11:47:23.957Z,7.93
2017-11-11T11:48:24.307Z,7.98
2017-11-11T11:49:24.322Z,8.03
2017-11-11T11:50:24.012Z,8.08
2017-11-11T11:51:24.342Z,8.13
2017-11-11T11:52:24.039Z,8.08
2017-11-11T11:53:24.380Z,8.13
2017-11-11T11:54:24.498Z,8.1
2017-11-11T11:55:24.414Z,8.18
2017-11-11T11:56:24.431Z,8.05
2017-11-11T11:57:24.438Z,8.01
2017-11-11T11:58:24.166Z,8.08
2017-11-11T11:59:24.149Z,8.09
2017-11-11T12:00:24.495Z,8.1
2017-11-11T12:01:24.531Z,8.15
2017-11-11T12:02:24.525Z,8.18
2017-11-11T12:03:24.534Z,8.23
2017-11-11T12:04:24.553Z,8.28
2017-11-11T12:05:24.243Z,8.23
2017-11-11T12:06:24.259Z,8.33
2017-11-11T12:07:24.274Z,8.38
2017-11-11T12:08:23.969Z,8.44
2017-11-11T12:09:24.679Z,8.37
2017-11-11T12:10:24.654Z,8.48
2017-11-11T12:11:24.347Z,8.42
2017-11-11T12:12:24.687Z,8.52
2017-11-11T12:13:24.388Z,8.19
2017-11-11T12:14:24.731Z,8.23
2017-11-11T12:15:24.733Z,8.08
2017-11-11T12:16:24.746Z,8.15
2017-11-11T12:17:24.124Z,8.18
2017-11-11T12:18:24.785Z,8.16
2017-11-11T12:19:24.470Z,8.15
2017-11-11T12:20:24.824Z,8.12
2017-11-11T12:21:24.830Z,8.15
2017-11-11T12:22:24.853Z,8.16
2017-11-11T12:23:24.545Z,8.19
2017-11-11T12:24:24.550Z,8.26
2017-11-11T12:25:24.944Z,8.34
2017-11-11T12:26:24.583Z,8.15
2017-11-11T12:27:24.931Z,8.28
2017-11-11T12:28:24.945Z,8.34
2017-11-11T12:29:24.637Z,8.16
2017-11-11T12:30:24.970Z,8.19
2017-11-11T12:31:24.666Z,8.23
2017-11-11T12:32:25.007Z,8.18
2017-11-11T12:33:24.706Z,8.1
2017-11-11T12:34:25.068Z,8.12
2017-11-11T12:35:25.065Z,8.16
2017-11-11T12:36:25.070Z,8.24
2017-11-11T12:37:24.767Z,8.27
2017-11-11T12:38:25.142Z,8.24
2017-11-11T12:39:25.159Z,8.38
2017-11-11T12:40:25.197Z,8.28
2017-11-11T12:41:24.841Z,8.24
2017-11-11T12:42:25.185Z,8.3
2017-11-11T12:43:25.182Z,8.27
2017-11-11T12:44:25.229Z,8.24
2017-11-11T12:45:24.892Z,8.3
2017-11-11T12:46:25.254Z,8.3
2017-11-11T12:47:24.930Z,8.3
2017-11-11T12:48:24.945Z,8.31
2017-11-11T12:49:25.281Z,8.28
2017-11-11T12:50:25.322Z,8.34
2017-11-11T12:51:25.333Z,8.52
2017-11-11T12:52:25.342Z,8.52
2017-11-11T12:53:25.348Z,8.45
2017-11-11T12:54:25.375Z,8.31
2017-11-11T12:55:25.456Z,8.28
2017-11-11T12:56:25.412Z,8.28
2017-11-11T12:57:25.091Z,7.97
2017-11-11T12:58:25.104Z,8.05
2017-11-11T12:59:25.446Z,8.12
2017-11-11T13:00:25.493Z,8.06
2017-11-11T13:01:25.184Z,7.97
2017-11-11T13:02:25.496Z,7.88
2017-11-11T13:03:25.510Z,7.9
2017-11-11T13:04:25.529Z,7.75
2017-11-11T13:05:25.542Z,7.76
2017-11-11T13:06:25.561Z,7.76
2017-11-11T13:07:25.249Z,7.87
2017-11-11T13:08:25.592Z,7.72
2017-11-11T13:09:25.605Z,7.87
2017-11-11T13:10:25.309Z,7.94
2017-11-11T13:11:25.320Z,7.93
2017-11-11T13:12:25.661Z,7.97
2017-11-11T13:13:25.347Z,8.01
2017-11-11T13:14:25.683Z,7.8
2017-11-11T13:15:25.382Z,7.88
2017-11-11T13:16:25.398Z,7.8
2017-11-11T13:17:25.734Z,7.8
2017-11-11T13:18:25.430Z,7.7
2017-11-11T13:19:25.768Z,7.79
2017-11-11T13:20:25.460Z,7.9
2017-11-11T13:21:25.477Z,7.73